sensor_id;sensor_type;location;lat;lon;timestamp;P1;durP1;ratioP1;P2;durP2;ratioP2
56345;SDS011;42246;46.096;13.644;2023-12-14T00:01:31;0.40;;;0.20;;
56345;SDS011;42246;46.096;13.644;2023-12-14T00:03:57;0.17;;;0.05;;
56345;SDS011;42246;46.096;13.644;2023-12-14T00:06:22;0.50;;;0.10;;
56345;SDS011;42246;46.096;13.644;2023-12-14T00:08:48;0.10;;;0.00;;
56345;SDS011;42246;46.096;13.644;2023-12-14T00:11:13;0.10;;;0.03;;
56345;SDS011;42246;46.096;13.644;2023-12-14T00:13:39;0.15;;;0.10;;
56345;SDS011;42246;46.096;13.644;2023-12-14T00:16:05;0.20;;;0.00;;
56345;SDS011;42246;46.096;13.644;2023-12-14T00:18:31;0.20;;;0.10;;
56345;SDS011;42246;46.096;13.644;2023-12-14T00:20:56;0.05;;;0.00;;
56345;SDS011;42246;46.096;13.644;2023-12-14T00:23:22;0.10;;;0.00;;
56345;SDS011;42246;46.096;13.644;2023-12-14T00:25:48;0.22;;;0.10;;
56345;SDS011;42246;46.096;13.644;2023-12-14T00:28:13;0.30;;;0.10;;
56345;SDS011;42246;46.096;13.644;2023-12-14T00:30:39;0.63;;;0.20;;
56345;SDS011;42246;46.096;13.644;2023-12-14T00:33:04;1.35;;;0.10;;
56345;SDS011;42246;46.096;13.644;2023-12-14T00:35:30;0.47;;;0.15;;
56345;SDS011;42246;46.096;13.644;2023-12-14T00:37:55;0.00;;;0.00;;
56345;SDS011;42246;46.096;13.644;2023-12-14T00:40:21;0.85;;;0.20;;
56345;SDS011;42246;46.096;13.644;2023-12-14T00:42:46;0.15;;;0.10;;
56345;SDS011;42246;46.096;13.644;2023-12-14T00:45:12;0.20;;;0.20;;
56345;SDS011;42246;46.096;13.644;2023-12-14T00:47:37;0.13;;;0.10;;
56345;SDS011;42246;46.096;13.644;2023-12-14T00:50:03;0.90;;;0.20;;
56345;SDS011;42246;46.096;13.644;2023-12-14T00:52:29;2.50;;;0.35;;
56345;SDS011;42246;46.096;13.644;2023-12-14T00:54:55;0.17;;;0.13;;
56345;SDS011;42246;46.096;13.644;2023-12-14T00:57:21;0.20;;;0.10;;
56345;SDS011;42246;46.096;13.644;2023-12-14T00:59:46;0.32;;;0.17;;
56345;SDS011;42246;46.096;13.644;2023-12-14T01:02:12;0.47;;;0.17;;
56345;SDS011;42246;46.096;13.644;2023-12-14T01:04:37;0.22;;;0.10;;
56345;SDS011;42246;46.096;13.644;2023-12-14T01:07:03;0.38;;;0.10;;
56345;SDS011;42246;46.096;13.644;2023-12-14T01:09:29;0.10;;;0.00;;
56345;SDS011;42246;46.096;13.644;2023-12-14T01:11:54;1.45;;;0.85;;
56345;SDS011;42246;46.096;13.644;2023-12-14T01:14:20;7.13;;;0.63;;
56345;SDS011;42246;46.096;13.644;2023-12-14T01:16:45;0.50;;;0.10;;
56345;SDS011;42246;46.096;13.644;2023-12-14T01:19:11;0.30;;;0.10;;
56345;SDS011;42246;46.096;13.644;2023-12-14T01:21:36;0.10;;;0.10;;
56345;SDS011;42246;46.096;13.644;2023-12-14T01:24:02;0.55;;;0.10;;
56345;SDS011;42246;46.096;13.644;2023-12-14T01:26:27;0.50;;;0.25;;
56345;SDS011;42246;46.096;13.644;2023-12-14T01:28:53;0.22;;;0.10;;
56345;SDS011;42246;46.096;13.644;2023-12-14T01:31:18;0.10;;;0.10;;
56345;SDS011;42246;46.096;13.644;2023-12-14T01:33:46;0.30;;;0.10;;
56345;SDS011;42246;46.096;13.644;2023-12-14T01:36:11;0.50;;;0.15;;
56345;SDS011;42246;46.096;13.644;2023-12-14T01:38:37;0.40;;;0.00;;
56345;SDS011;42246;46.096;13.644;2023-12-14T01:41:03;0.20;;;0.20;;
56345;SDS011;42246;46.096;13.644;2023-12-14T01:43:28;0.30;;;0.20;;
56345;SDS011;42246;46.096;13.644;2023-12-14T01:45:54;0.32;;;0.30;;
56345;SDS011;42246;46.096;13.644;2023-12-14T01:48:19;0.00;;;0.00;;
56345;SDS011;42246;46.096;13.644;2023-12-14T01:50:45;0.63;;;0.25;;
56345;SDS011;42246;46.096;13.644;2023-12-14T01:53:10;0.00;;;0.00;;
56345;SDS011;42246;46.096;13.644;2023-12-14T01:55:36;0.00;;;0.00;;
56345;SDS011;42246;46.096;13.644;2023-12-14T01:58:01;0.20;;;0.15;;
56345;SDS011;42246;46.096;13.644;2023-12-14T02:00:35;0.30;;;0.10;;
56345;SDS011;42246;46.096;13.644;2023-12-14T02:03:06;1.65;;;0.35;;
56345;SDS011;42246;46.096;13.644;2023-12-14T02:05:32;0.95;;;0.20;;
56345;SDS011;42246;46.096;13.644;2023-12-14T02:07:57;0.47;;;0.43;;
56345;SDS011;42246;46.096;13.644;2023-12-14T02:10:23;0.10;;;0.10;;
56345;SDS011;42246;46.096;13.644;2023-12-14T02:12:49;0.22;;;0.10;;
56345;SDS011;42246;46.096;13.644;2023-12-14T02:15:14;0.13;;;0.10;;
56345;SDS011;42246;46.096;13.644;2023-12-14T02:17:40;0.95;;;0.10;;
56345;SDS011;42246;46.096;13.644;2023-12-14T02:20:05;0.28;;;0.10;;
56345;SDS011;42246;46.096;13.644;2023-12-14T02:25:19;0.30;;;0.20;;
56345;SDS011;42246;46.096;13.644;2023-12-14T02:27:46;0.00;;;0.00;;
56345;SDS011;42246;46.096;13.644;2023-12-14T02:30:12;0.10;;;0.10;;
56345;SDS011;42246;46.096;13.644;2023-12-14T02:32:38;0.00;;;0.00;;
56345;SDS011;42246;46.096;13.644;2023-12-14T02:35:05;0.20;;;0.20;;
56345;SDS011;42246;46.096;13.644;2023-12-14T02:37:31;0.40;;;0.20;;
56345;SDS011;42246;46.096;13.644;2023-12-14T02:39:58;0.05;;;0.05;;
56345;SDS011;42246;46.096;13.644;2023-12-14T02:42:23;0.70;;;0.17;;
56345;SDS011;42246;46.096;13.644;2023-12-14T02:44:49;0.22;;;0.00;;
56345;SDS011;42246;46.096;13.644;2023-12-14T02:47:14;1.95;;;0.13;;
56345;SDS011;42246;46.096;13.644;2023-12-14T02:49:41;0.10;;;0.00;;
56345;SDS011;42246;46.096;13.644;2023-12-14T02:52:06;2.67;;;0.20;;
56345;SDS011;42246;46.096;13.644;2023-12-14T02:54:32;1.73;;;0.00;;
56345;SDS011;42246;46.096;13.644;2023-12-14T02:56:57;0.10;;;0.10;;
56345;SDS011;42246;46.096;13.644;2023-12-14T02:59:23;2.13;;;0.08;;
56345;SDS011;42246;46.096;13.644;2023-12-14T03:01:48;0.63;;;0.30;;
56345;SDS011;42246;46.096;13.644;2023-12-14T03:04:13;0.98;;;0.08;;
56345;SDS011;42246;46.096;13.644;2023-12-14T03:06:39;1.45;;;0.10;;
56345;SDS011;42246;46.096;13.644;2023-12-14T03:09:04;0.50;;;0.10;;
56345;SDS011;42246;46.096;13.644;2023-12-14T03:11:30;0.10;;;0.10;;
56345;SDS011;42246;46.096;13.644;2023-12-14T03:13:55;6.32;;;0.25;;
56345;SDS011;42246;46.096;13.644;2023-12-14T03:16:21;0.90;;;0.10;;
56345;SDS011;42246;46.096;13.644;2023-12-14T03:18:46;3.10;;;0.10;;
56345;SDS011;42246;46.096;13.644;2023-12-14T03:21:14;0.47;;;0.43;;
56345;SDS011;42246;46.096;13.644;2023-12-14T03:23:39;0.25;;;0.10;;
56345;SDS011;42246;46.096;13.644;2023-12-14T03:26:05;0.15;;;0.08;;
56345;SDS011;42246;46.096;13.644;2023-12-14T03:28:30;0.05;;;0.00;;
56345;SDS011;42246;46.096;13.644;2023-12-14T03:30:56;0.20;;;0.00;;
56345;SDS011;42246;46.096;13.644;2023-12-14T03:33:21;0.00;;;0.00;;
56345;SDS011;42246;46.096;13.644;2023-12-14T03:35:47;0.20;;;0.00;;
56345;SDS011;42246;46.096;13.644;2023-12-14T03:38:13;0.08;;;0.00;;
56345;SDS011;42246;46.096;13.644;2023-12-14T03:40:39;0.35;;;0.20;;
56345;SDS011;42246;46.096;13.644;2023-12-14T03:43:04;1.20;;;0.10;;
56345;SDS011;42246;46.096;13.644;2023-12-14T03:45:30;0.00;;;0.00;;
56345;SDS011;42246;46.096;13.644;2023-12-14T03:47:55;0.10;;;0.10;;
56345;SDS011;42246;46.096;13.644;2023-12-14T03:50:21;0.10;;;0.00;;
56345;SDS011;42246;46.096;13.644;2023-12-14T03:52:47;4.97;;;0.00;;
56345;SDS011;42246;46.096;13.644;2023-12-14T03:55:13;0.00;;;0.00;;
56345;SDS011;42246;46.096;13.644;2023-12-14T03:57:40;0.10;;;0.10;;
56345;SDS011;42246;46.096;13.644;2023-12-14T04:00:06;0.30;;;0.20;;
56345;SDS011;42246;46.096;13.644;2023-12-14T04:02:34;0.00;;;0.00;;
56345;SDS011;42246;46.096;13.644;2023-12-14T04:05:00;0.00;;;0.00;;
56345;SDS011;42246;46.096;13.644;2023-12-14T04:07:25;0.00;;;0.00;;
56345;SDS011;42246;46.096;13.644;2023-12-14T04:09:51;0.10;;;0.00;;
56345;SDS011;42246;46.096;13.644;2023-12-14T04:12:16;0.15;;;0.10;;
56345;SDS011;42246;46.096;13.644;2023-12-14T04:14:42;0.40;;;0.40;;
56345;SDS011;42246;46.096;13.644;2023-12-14T04:17:07;0.10;;;0.10;;
56345;SDS011;42246;46.096;13.644;2023-12-14T04:19:33;0.50;;;0.20;;
56345;SDS011;42246;46.096;13.644;2023-12-14T04:21:58;12.75;;;1.17;;
56345;SDS011;42246;46.096;13.644;2023-12-14T04:24:23;0.30;;;0.13;;
56345;SDS011;42246;46.096;13.644;2023-12-14T04:26:49;0.32;;;0.10;;
56345;SDS011;42246;46.096;13.644;2023-12-14T04:29:14;0.25;;;0.15;;
56345;SDS011;42246;46.096;13.644;2023-12-14T04:31:40;1.45;;;0.10;;
56345;SDS011;42246;46.096;13.644;2023-12-14T04:34:05;0.20;;;0.10;;
56345;SDS011;42246;46.096;13.644;2023-12-14T04:36:36;0.30;;;0.10;;
56345;SDS011;42246;46.096;13.644;2023-12-14T04:39:02;0.38;;;0.05;;
56345;SDS011;42246;46.096;13.644;2023-12-14T04:41:28;0.43;;;0.43;;
56345;SDS011;42246;46.096;13.644;2023-12-14T04:43:53;1.65;;;0.35;;
56345;SDS011;42246;46.096;13.644;2023-12-14T04:46:19;2.42;;;0.20;;
56345;SDS011;42246;46.096;13.644;2023-12-14T04:48:44;0.35;;;0.20;;
56345;SDS011;42246;46.096;13.644;2023-12-14T04:51:13;0.63;;;0.20;;
56345;SDS011;42246;46.096;13.644;2023-12-14T04:53:38;13.20;;;3.92;;
56345;SDS011;42246;46.096;13.644;2023-12-14T04:56:04;55.47;;;18.05;;
56345;SDS011;42246;46.096;13.644;2023-12-14T04:58:31;35.75;;;8.73;;
56345;SDS011;42246;46.096;13.644;2023-12-14T05:00:56;11.30;;;3.38;;
56345;SDS011;42246;46.096;13.644;2023-12-14T05:03:21;22.88;;;8.70;;
56345;SDS011;42246;46.096;13.644;2023-12-14T05:05:47;20.95;;;6.97;;
56345;SDS011;42246;46.096;13.644;2023-12-14T05:08:13;8.43;;;3.20;;
56345;SDS011;42246;46.096;13.644;2023-12-14T05:10:38;8.68;;;2.90;;
56345;SDS011;42246;46.096;13.644;2023-12-14T05:13:04;4.85;;;1.88;;
56345;SDS011;42246;46.096;13.644;2023-12-14T05:15:29;9.70;;;2.70;;
56345;SDS011;42246;46.096;13.644;2023-12-14T05:17:55;20.35;;;7.20;;
56345;SDS011;42246;46.096;13.644;2023-12-14T05:20:21;20.50;;;9.25;;
56345;SDS011;42246;46.096;13.644;2023-12-14T05:22:46;16.40;;;5.35;;
56345;SDS011;42246;46.096;13.644;2023-12-14T05:25:12;45.50;;;14.90;;
56345;SDS011;42246;46.096;13.644;2023-12-14T05:27:37;25.58;;;9.98;;
56345;SDS011;42246;46.096;13.644;2023-12-14T05:30:02;15.30;;;4.25;;
56345;SDS011;42246;46.096;13.644;2023-12-14T05:32:29;12.40;;;2.65;;
56345;SDS011;42246;46.096;13.644;2023-12-14T05:34:54;26.67;;;9.93;;
56345;SDS011;42246;46.096;13.644;2023-12-14T05:37:19;54.97;;;18.23;;
56345;SDS011;42246;46.096;13.644;2023-12-14T05:39:45;31.55;;;8.27;;
56345;SDS011;42246;46.096;13.644;2023-12-14T05:42:10;49.05;;;17.70;;
56345;SDS011;42246;46.096;13.644;2023-12-14T05:44:36;20.00;;;8.20;;
56345;SDS011;42246;46.096;13.644;2023-12-14T05:47:01;14.98;;;5.32;;
56345;SDS011;42246;46.096;13.644;2023-12-14T05:49:27;26.02;;;8.07;;
56345;SDS011;42246;46.096;13.644;2023-12-14T05:51:52;25.52;;;6.50;;
56345;SDS011;42246;46.096;13.644;2023-12-14T05:54:18;25.20;;;9.50;;
56345;SDS011;42246;46.096;13.644;2023-12-14T05:56:43;11.27;;;2.95;;
56345;SDS011;42246;46.096;13.644;2023-12-14T05:59:09;26.13;;;5.22;;
56345;SDS011;42246;46.096;13.644;2023-12-14T06:01:34;17.75;;;4.53;;
56345;SDS011;42246;46.096;13.644;2023-12-14T06:04:00;12.30;;;4.82;;
56345;SDS011;42246;46.096;13.644;2023-12-14T06:06:25;32.97;;;13.70;;
56345;SDS011;42246;46.096;13.644;2023-12-14T06:08:51;26.58;;;9.93;;
56345;SDS011;42246;46.096;13.644;2023-12-14T06:11:16;23.52;;;10.18;;
56345;SDS011;42246;46.096;13.644;2023-12-14T06:13:42;13.43;;;4.88;;
56345;SDS011;42246;46.096;13.644;2023-12-14T06:16:08;36.78;;;14.65;;
56345;SDS011;42246;46.096;13.644;2023-12-14T06:18:37;14.23;;;4.55;;
56345;SDS011;42246;46.096;13.644;2023-12-14T06:21:06;10.60;;;3.78;;
56345;SDS011;42246;46.096;13.644;2023-12-14T06:23:32;12.02;;;4.05;;
56345;SDS011;42246;46.096;13.644;2023-12-14T06:25:57;9.75;;;2.65;;
56345;SDS011;42246;46.096;13.644;2023-12-14T06:28:23;10.75;;;4.30;;
56345;SDS011;42246;46.096;13.644;2023-12-14T06:30:49;10.50;;;4.82;;
56345;SDS011;42246;46.096;13.644;2023-12-14T06:33:15;17.95;;;6.32;;
56345;SDS011;42246;46.096;13.644;2023-12-14T06:35:40;43.63;;;15.15;;
56345;SDS011;42246;46.096;13.644;2023-12-14T06:38:06;22.35;;;8.60;;
56345;SDS011;42246;46.096;13.644;2023-12-14T06:40:32;20.73;;;8.48;;
56345;SDS011;42246;46.096;13.644;2023-12-14T06:42:57;14.32;;;6.05;;
56345;SDS011;42246;46.096;13.644;2023-12-14T06:45:23;9.25;;;3.50;;
56345;SDS011;42246;46.096;13.644;2023-12-14T06:47:48;4.60;;;2.50;;
56345;SDS011;42246;46.096;13.644;2023-12-14T06:50:15;7.88;;;2.28;;
56345;SDS011;42246;46.096;13.644;2023-12-14T06:52:40;12.18;;;2.95;;
56345;SDS011;42246;46.096;13.644;2023-12-14T06:55:06;4.38;;;1.23;;
56345;SDS011;42246;46.096;13.644;2023-12-14T06:57:32;9.35;;;2.25;;
56345;SDS011;42246;46.096;13.644;2023-12-14T06:59:57;2.13;;;0.30;;
56345;SDS011;42246;46.096;13.644;2023-12-14T07:02:23;2.15;;;0.52;;
56345;SDS011;42246;46.096;13.644;2023-12-14T07:04:48;1.85;;;0.68;;
56345;SDS011;42246;46.096;13.644;2023-12-14T07:07:14;16.90;;;4.85;;
56345;SDS011;42246;46.096;13.644;2023-12-14T07:09:40;15.25;;;4.18;;
56345;SDS011;42246;46.096;13.644;2023-12-14T07:12:06;11.45;;;3.05;;
56345;SDS011;42246;46.096;13.644;2023-12-14T07:14:33;10.38;;;3.20;;
56345;SDS011;42246;46.096;13.644;2023-12-14T07:16:58;7.03;;;2.85;;
56345;SDS011;42246;46.096;13.644;2023-12-14T07:19:24;7.78;;;2.58;;
56345;SDS011;42246;46.096;13.644;2023-12-14T07:21:49;4.70;;;1.63;;
56345;SDS011;42246;46.096;13.644;2023-12-14T07:24:14;6.00;;;1.73;;
56345;SDS011;42246;46.096;13.644;2023-12-14T07:26:40;17.80;;;4.78;;
56345;SDS011;42246;46.096;13.644;2023-12-14T07:29:05;3.35;;;1.10;;
56345;SDS011;42246;46.096;13.644;2023-12-14T07:31:31;4.53;;;1.48;;
56345;SDS011;42246;46.096;13.644;2023-12-14T07:33:58;8.18;;;1.83;;
56345;SDS011;42246;46.096;13.644;2023-12-14T07:36:24;14.68;;;5.38;;
56345;SDS011;42246;46.096;13.644;2023-12-14T07:38:50;8.85;;;4.38;;
56345;SDS011;42246;46.096;13.644;2023-12-14T07:41:15;8.45;;;2.92;;
56345;SDS011;42246;46.096;13.644;2023-12-14T07:43:41;3.72;;;0.93;;
56345;SDS011;42246;46.096;13.644;2023-12-14T07:46:06;5.57;;;2.15;;
56345;SDS011;42246;46.096;13.644;2023-12-14T07:48:32;2.05;;;0.75;;
56345;SDS011;42246;46.096;13.644;2023-12-14T07:50:57;6.10;;;2.35;;
56345;SDS011;42246;46.096;13.644;2023-12-14T07:53:23;2.17;;;1.00;;
56345;SDS011;42246;46.096;13.644;2023-12-14T07:55:49;7.20;;;1.92;;
56345;SDS011;42246;46.096;13.644;2023-12-14T07:58:15;2.15;;;0.60;;
56345;SDS011;42246;46.096;13.644;2023-12-14T08:00:40;2.92;;;0.57;;
56345;SDS011;42246;46.096;13.644;2023-12-14T08:03:06;4.63;;;1.10;;
56345;SDS011;42246;46.096;13.644;2023-12-14T08:05:31;2.85;;;1.02;;
56345;SDS011;42246;46.096;13.644;2023-12-14T08:07:57;5.18;;;1.90;;
56345;SDS011;42246;46.096;13.644;2023-12-14T08:10:22;1.38;;;0.90;;
56345;SDS011;42246;46.096;13.644;2023-12-14T08:12:48;6.32;;;2.08;;
56345;SDS011;42246;46.096;13.644;2023-12-14T08:15:13;3.63;;;1.10;;
56345;SDS011;42246;46.096;13.644;2023-12-14T08:17:39;2.60;;;1.02;;
56345;SDS011;42246;46.096;13.644;2023-12-14T08:20:06;9.57;;;4.20;;
56345;SDS011;42246;46.096;13.644;2023-12-14T08:22:34;6.47;;;1.88;;
56345;SDS011;42246;46.096;13.644;2023-12-14T08:24:59;11.48;;;3.42;;
56345;SDS011;42246;46.096;13.644;2023-12-14T08:27:25;13.18;;;4.07;;
56345;SDS011;42246;46.096;13.644;2023-12-14T08:29:50;4.38;;;2.45;;
56345;SDS011;42246;46.096;13.644;2023-12-14T08:32:16;8.07;;;2.85;;
56345;SDS011;42246;46.096;13.644;2023-12-14T08:34:41;4.70;;;1.40;;
56345;SDS011;42246;46.096;13.644;2023-12-14T08:37:07;9.88;;;3.17;;
56345;SDS011;42246;46.096;13.644;2023-12-14T08:39:32;2.22;;;0.60;;
56345;SDS011;42246;46.096;13.644;2023-12-14T08:41:58;2.83;;;1.13;;
56345;SDS011;42246;46.096;13.644;2023-12-14T08:44:23;1.80;;;0.70;;
56345;SDS011;42246;46.096;13.644;2023-12-14T08:46:49;3.55;;;1.10;;
56345;SDS011;42246;46.096;13.644;2023-12-14T08:49:14;3.63;;;1.30;;
56345;SDS011;42246;46.096;13.644;2023-12-14T08:51:41;1.45;;;0.30;;
56345;SDS011;42246;46.096;13.644;2023-12-14T08:54:07;3.80;;;1.75;;
56345;SDS011;42246;46.096;13.644;2023-12-14T08:56:32;2.67;;;0.70;;
56345;SDS011;42246;46.096;13.644;2023-12-14T08:58:58;1.98;;;1.08;;
56345;SDS011;42246;46.096;13.644;2023-12-14T09:01:24;0.40;;;0.40;;
56345;SDS011;42246;46.096;13.644;2023-12-14T09:03:50;2.00;;;0.90;;
56345;SDS011;42246;46.096;13.644;2023-12-14T09:06:16;1.63;;;0.45;;
56345;SDS011;42246;46.096;13.644;2023-12-14T09:08:42;2.00;;;0.82;;
56345;SDS011;42246;46.096;13.644;2023-12-14T09:11:09;2.50;;;0.98;;
56345;SDS011;42246;46.096;13.644;2023-12-14T09:13:34;3.13;;;0.75;;
56345;SDS011;42246;46.096;13.644;2023-12-14T09:16:00;2.95;;;1.17;;
56345;SDS011;42246;46.096;13.644;2023-12-14T09:18:25;4.32;;;1.13;;
56345;SDS011;42246;46.096;13.644;2023-12-14T09:20:51;2.88;;;1.13;;
56345;SDS011;42246;46.096;13.644;2023-12-14T09:23:16;1.58;;;0.50;;
56345;SDS011;42246;46.096;13.644;2023-12-14T09:25:42;3.75;;;0.60;;
56345;SDS011;42246;46.096;13.644;2023-12-14T09:28:07;1.73;;;0.75;;
56345;SDS011;42246;46.096;13.644;2023-12-14T09:30:33;4.43;;;1.45;;
56345;SDS011;42246;46.096;13.644;2023-12-14T09:32:59;4.20;;;1.35;;
56345;SDS011;42246;46.096;13.644;2023-12-14T09:35:24;4.45;;;1.60;;
56345;SDS011;42246;46.096;13.644;2023-12-14T09:37:50;2.40;;;1.05;;
56345;SDS011;42246;46.096;13.644;2023-12-14T09:40:15;4.32;;;1.40;;
56345;SDS011;42246;46.096;13.644;2023-12-14T09:42:43;8.15;;;2.00;;
56345;SDS011;42246;46.096;13.644;2023-12-14T09:45:09;4.13;;;2.03;;
56345;SDS011;42246;46.096;13.644;2023-12-14T09:47:36;10.27;;;2.90;;
56345;SDS011;42246;46.096;13.644;2023-12-14T09:50:02;9.65;;;3.65;;
56345;SDS011;42246;46.096;13.644;2023-12-14T09:52:28;7.88;;;2.10;;
56345;SDS011;42246;46.096;13.644;2023-12-14T09:54:54;9.90;;;3.63;;
56345;SDS011;42246;46.096;13.644;2023-12-14T09:57:19;5.63;;;2.00;;
56345;SDS011;42246;46.096;13.644;2023-12-14T09:59:55;8.90;;;2.50;;
56345;SDS011;42246;46.096;13.644;2023-12-14T10:02:24;7.40;;;2.13;;
56345;SDS011;42246;46.096;13.644;2023-12-14T10:04:51;5.75;;;1.58;;
56345;SDS011;42246;46.096;13.644;2023-12-14T10:07:17;9.63;;;3.75;;
56345;SDS011;42246;46.096;13.644;2023-12-14T10:09:46;5.35;;;2.08;;
56345;SDS011;42246;46.096;13.644;2023-12-14T10:12:12;5.43;;;2.15;;
56345;SDS011;42246;46.096;13.644;2023-12-14T10:14:37;2.25;;;1.02;;
56345;SDS011;42246;46.096;13.644;2023-12-14T10:17:18;4.07;;;2.05;;
56345;SDS011;42246;46.096;13.644;2023-12-14T10:19:46;2.00;;;0.88;;
56345;SDS011;42246;46.096;13.644;2023-12-14T10:22:15;1.10;;;0.43;;
56345;SDS011;42246;46.096;13.644;2023-12-14T10:24:43;1.23;;;0.70;;
56345;SDS011;42246;46.096;13.644;2023-12-14T10:27:09;0.73;;;0.30;;
56345;SDS011;42246;46.096;13.644;2023-12-14T10:29:39;1.63;;;0.30;;
56345;SDS011;42246;46.096;13.644;2023-12-14T10:32:05;0.93;;;0.55;;
56345;SDS011;42246;46.096;13.644;2023-12-14T10:34:35;0.82;;;0.28;;
56345;SDS011;42246;46.096;13.644;2023-12-14T10:37:01;0.90;;;0.28;;
56345;SDS011;42246;46.096;13.644;2023-12-14T10:39:28;0.75;;;0.10;;
56345;SDS011;42246;46.096;13.644;2023-12-14T10:41:54;0.80;;;0.30;;
56345;SDS011;42246;46.096;13.644;2023-12-14T10:44:23;0.60;;;0.30;;
56345;SDS011;42246;46.096;13.644;2023-12-14T10:46:51;0.90;;;0.20;;
56345;SDS011;42246;46.096;13.644;2023-12-14T10:49:23;0.65;;;0.30;;
56345;SDS011;42246;46.096;13.644;2023-12-14T10:51:53;0.47;;;0.20;;
56345;SDS011;42246;46.096;13.644;2023-12-14T10:54:22;1.85;;;0.30;;
56345;SDS011;42246;46.096;13.644;2023-12-14T10:56:48;0.47;;;0.40;;
56345;SDS011;42246;46.096;13.644;2023-12-14T10:59:17;1.15;;;0.20;;
56345;SDS011;42246;46.096;13.644;2023-12-14T11:01:42;1.70;;;0.30;;
56345;SDS011;42246;46.096;13.644;2023-12-14T11:04:08;1.15;;;0.40;;
56345;SDS011;42246;46.096;13.644;2023-12-14T11:06:39;0.45;;;0.20;;
56345;SDS011;42246;46.096;13.644;2023-12-14T11:09:07;1.25;;;0.50;;
56345;SDS011;42246;46.096;13.644;2023-12-14T11:14:22;0.40;;;0.40;;
56345;SDS011;42246;46.096;13.644;2023-12-14T11:16:55;0.30;;;0.20;;
56345;SDS011;42246;46.096;13.644;2023-12-14T11:24:20;0.40;;;0.25;;
56345;SDS011;42246;46.096;13.644;2023-12-14T11:26:48;0.60;;;0.17;;
56345;SDS011;42246;46.096;13.644;2023-12-14T11:29:14;0.95;;;0.70;;
56345;SDS011;42246;46.096;13.644;2023-12-14T11:31:40;0.85;;;0.30;;
56345;SDS011;42246;46.096;13.644;2023-12-14T11:34:05;0.93;;;0.63;;
56345;SDS011;42246;46.096;13.644;2023-12-14T11:36:32;0.52;;;0.28;;
56345;SDS011;42246;46.096;13.644;2023-12-14T11:38:58;1.23;;;0.60;;
56345;SDS011;42246;46.096;13.644;2023-12-14T11:41:23;1.17;;;0.45;;
56345;SDS011;42246;46.096;13.644;2023-12-14T11:43:50;1.40;;;0.60;;
56345;SDS011;42246;46.096;13.644;2023-12-14T11:46:16;0.75;;;0.50;;
56345;SDS011;42246;46.096;13.644;2023-12-14T11:48:43;1.30;;;0.40;;
56345;SDS011;42246;46.096;13.644;2023-12-14T11:51:10;1.17;;;0.50;;
56345;SDS011;42246;46.096;13.644;2023-12-14T11:53:36;0.70;;;0.43;;
56345;SDS011;42246;46.096;13.644;2023-12-14T11:56:05;0.90;;;0.35;;
56345;SDS011;42246;46.096;13.644;2023-12-14T11:58:34;1.08;;;0.60;;
56345;SDS011;42246;46.096;13.644;2023-12-14T12:03:41;1.00;;;0.22;;
56345;SDS011;42246;46.096;13.644;2023-12-14T12:06:09;1.35;;;0.50;;
56345;SDS011;42246;46.096;13.644;2023-12-14T12:08:53;0.40;;;0.20;;
56345;SDS011;42246;46.096;13.644;2023-12-14T12:11:19;0.30;;;0.30;;
56345;SDS011;42246;46.096;13.644;2023-12-14T12:13:50;0.30;;;0.20;;
56345;SDS011;42246;46.096;13.644;2023-12-14T12:16:19;0.80;;;0.63;;
56345;SDS011;42246;46.096;13.644;2023-12-14T12:18:44;0.80;;;0.40;;
56345;SDS011;42246;46.096;13.644;2023-12-14T12:21:11;1.27;;;0.47;;
56345;SDS011;42246;46.096;13.644;2023-12-14T12:23:36;0.98;;;0.43;;
56345;SDS011;42246;46.096;13.644;2023-12-14T12:26:02;1.00;;;0.35;;
56345;SDS011;42246;46.096;13.644;2023-12-14T12:28:28;0.50;;;0.30;;
56345;SDS011;42246;46.096;13.644;2023-12-14T12:30:55;1.85;;;0.43;;
56345;SDS011;42246;46.096;13.644;2023-12-14T12:33:20;1.27;;;0.40;;
56345;SDS011;42246;46.096;13.644;2023-12-14T12:35:46;0.95;;;0.47;;
56345;SDS011;42246;46.096;13.644;2023-12-14T12:38:12;0.70;;;0.63;;
56345;SDS011;42246;46.096;13.644;2023-12-14T12:40:37;1.10;;;0.70;;
56345;SDS011;42246;46.096;13.644;2023-12-14T12:43:03;0.90;;;0.60;;
56345;SDS011;42246;46.096;13.644;2023-12-14T12:45:29;0.85;;;0.60;;
56345;SDS011;42246;46.096;13.644;2023-12-14T12:47:55;0.90;;;0.50;;
56345;SDS011;42246;46.096;13.644;2023-12-14T12:50:20;0.68;;;0.40;;
56345;SDS011;42246;46.096;13.644;2023-12-14T12:52:46;1.02;;;0.82;;
56345;SDS011;42246;46.096;13.644;2023-12-14T12:55:14;1.55;;;0.60;;
56345;SDS011;42246;46.096;13.644;2023-12-14T12:57:40;1.52;;;0.75;;
56345;SDS011;42246;46.096;13.644;2023-12-14T13:00:07;0.65;;;0.40;;
56345;SDS011;42246;46.096;13.644;2023-12-14T13:02:37;0.90;;;0.65;;
56345;SDS011;42246;46.096;13.644;2023-12-14T13:05:04;1.08;;;0.52;;
56345;SDS011;42246;46.096;13.644;2023-12-14T13:07:31;0.75;;;0.35;;
56345;SDS011;42246;46.096;13.644;2023-12-14T13:09:56;0.73;;;0.45;;
56345;SDS011;42246;46.096;13.644;2023-12-14T13:12:22;0.70;;;0.35;;
56345;SDS011;42246;46.096;13.644;2023-12-14T13:14:48;0.55;;;0.35;;
56345;SDS011;42246;46.096;13.644;2023-12-14T13:17:16;0.47;;;0.20;;
56345;SDS011;42246;46.096;13.644;2023-12-14T13:19:44;1.58;;;0.47;;
56345;SDS011;42246;46.096;13.644;2023-12-14T13:22:10;0.80;;;0.35;;
56345;SDS011;42246;46.096;13.644;2023-12-14T13:24:36;0.90;;;0.60;;
56345;SDS011;42246;46.096;13.644;2023-12-14T13:27:02;0.70;;;0.32;;
56345;SDS011;42246;46.096;13.644;2023-12-14T13:29:32;0.73;;;0.50;;
56345;SDS011;42246;46.096;13.644;2023-12-14T13:31:59;0.82;;;0.40;;
56345;SDS011;42246;46.096;13.644;2023-12-14T13:34:25;0.85;;;0.50;;
56345;SDS011;42246;46.096;13.644;2023-12-14T13:37:03;1.50;;;0.40;;
56345;SDS011;42246;46.096;13.644;2023-12-14T13:39:30;1.30;;;0.57;;
56345;SDS011;42246;46.096;13.644;2023-12-14T13:41:58;0.40;;;0.30;;
56345;SDS011;42246;46.096;13.644;2023-12-14T13:44:24;0.85;;;0.60;;
56345;SDS011;42246;46.096;13.644;2023-12-14T13:46:49;0.45;;;0.35;;
56345;SDS011;42246;46.096;13.644;2023-12-14T13:49:15;0.55;;;0.30;;
56345;SDS011;42246;46.096;13.644;2023-12-14T13:51:40;0.95;;;0.45;;
56345;SDS011;42246;46.096;13.644;2023-12-14T13:54:06;0.98;;;0.45;;
56345;SDS011;42246;46.096;13.644;2023-12-14T13:56:31;0.85;;;0.50;;
56345;SDS011;42246;46.096;13.644;2023-12-14T13:58:59;1.40;;;0.47;;
56345;SDS011;42246;46.096;13.644;2023-12-14T14:01:25;0.98;;;0.50;;
56345;SDS011;42246;46.096;13.644;2023-12-14T14:03:50;1.15;;;0.50;;
56345;SDS011;42246;46.096;13.644;2023-12-14T14:06:16;0.80;;;0.40;;
56345;SDS011;42246;46.096;13.644;2023-12-14T14:08:42;3.30;;;1.58;;
56345;SDS011;42246;46.096;13.644;2023-12-14T14:11:10;0.70;;;0.30;;
56345;SDS011;42246;46.096;13.644;2023-12-14T14:13:37;2.97;;;0.93;;
56345;SDS011;42246;46.096;13.644;2023-12-14T14:16:03;0.90;;;0.32;;
56345;SDS011;42246;46.096;13.644;2023-12-14T14:18:30;0.55;;;0.30;;
56345;SDS011;42246;46.096;13.644;2023-12-14T14:20:56;2.42;;;1.10;;
56345;SDS011;42246;46.096;13.644;2023-12-14T14:23:21;0.60;;;0.30;;
56345;SDS011;42246;46.096;13.644;2023-12-14T14:25:47;0.20;;;0.20;;
56345;SDS011;42246;46.096;13.644;2023-12-14T14:28:21;0.80;;;0.57;;
56345;SDS011;42246;46.096;13.644;2023-12-14T14:31:05;1.27;;;0.47;;
56345;SDS011;42246;46.096;13.644;2023-12-14T14:33:31;0.85;;;0.60;;
56345;SDS011;42246;46.096;13.644;2023-12-14T14:35:56;0.70;;;0.60;;
56345;SDS011;42246;46.096;13.644;2023-12-14T14:38:22;1.05;;;0.60;;
56345;SDS011;42246;46.096;13.644;2023-12-14T14:40:47;1.40;;;0.40;;